Time;durP1;ratioP1;P1;durP2;ratioP2;P2;SDS_P1;SDS_P2;PMS_P1;PMS_P2;Temp;Humidity;BMP_temperature;BMP_pressure;BME280_temperature;BME280_humidity;BME280_pressure;Samples;Min_cycle;Max_cycle;Signal;HPM_P1;HPM_P2
2023/12/12 00:01:55;;;;;;;17.60;4.20;;;7.90;99.90;;;;;;489519;243;28371;-73
2023/12/12 00:03:57;;;;;;;10.10;3.00;;;7.90;99.90;;;;;;489564;243;28309;-71
2023/12/12 00:05:58;;;;;;;18.03;3.77;;;7.90;99.90;;;;;;489509;243;28648;-71
2023/12/12 00:08:00;;;;;;;9.90;3.73;;;7.90;99.90;;;;;;489468;243;27886;-71
2023/12/12 00:10:00;;;;;;;12.93;3.30;;;7.90;99.90;;;;;;489453;243;27825;-71
2023/12/12 00:12:02;;;;;;;15.97;3.50;;;7.90;99.90;;;;;;489474;242;27859;-72
2023/12/12 00:14:03;;;;;;;13.77;3.83;;;7.90;99.90;;;;;;489534;243;27983;-71
2023/12/12 00:16:06;;;;;;;16.30;4.03;;;7.90;99.90;;;;;;489535;243;27826;-71
2023/12/12 00:18:06;;;;;;;12.87;3.83;;;7.90;99.90;;;;;;489319;243;28135;-71
2023/12/12 00:20:07;;;;;;;21.57;3.90;;;7.90;99.90;;;;;;497856;235;28390;-72
2023/12/12 00:22:08;;;;;;;11.63;3.70;;;7.90;99.90;;;;;;501269;237;28290;-72
2023/12/12 00:24:09;;;;;;;12.30;4.50;;;7.90;99.90;;;;;;501312;237;28348;-71
2023/12/12 00:26:12;;;;;;;18.83;3.70;;;7.90;99.90;;;;;;501293;237;28416;-71
2023/12/12 00:28:12;;;;;;;15.27;3.77;;;7.80;99.90;;;;;;501198;237;28057;-72
2023/12/12 00:30:13;;;;;;;12.67;3.93;;;7.80;99.90;;;;;;501298;237;27921;-71
2023/12/12 00:32:14;;;;;;;19.93;4.53;;;7.80;99.90;;;;;;501276;237;27962;-71
2023/12/12 00:34:15;;;;;;;22.53;5.00;;;7.80;99.90;;;;;;501220;237;27656;-71
2023/12/12 00:36:17;;;;;;;16.57;5.23;;;7.70;99.90;;;;;;501215;237;27953;-71
2023/12/12 00:38:18;;;;;;;14.70;4.27;;;7.80;99.90;;;;;;501276;237;27960;-72
2023/12/12 00:40:19;;;;;;;11.30;3.43;;;7.80;99.90;;;;;;501287;237;27794;-71
2023/12/12 00:42:20;;;;;;;17.90;5.10;;;7.80;99.90;;;;;;501275;237;27955;-71
2023/12/12 00:44:22;;;;;;;13.63;4.20;;;7.80;99.90;;;;;;501253;237;27902;-71
2023/12/12 00:46:23;;;;;;;23.63;5.60;;;7.70;99.90;;;;;;501272;237;28491;-71
2023/12/12 00:48:24;;;;;;;14.13;4.27;;;7.70;99.90;;;;;;501270;237;28570;-72
2023/12/12 00:50:25;;;;;;;16.40;3.70;;;7.70;99.90;;;;;;501268;237;28532;-71
2023/12/12 00:52:27;;;;;;;18.90;5.03;;;7.70;99.90;;;;;;501247;237;28190;-71
2023/12/12 00:54:28;;;;;;;15.93;3.90;;;7.70;99.90;;;;;;501265;237;27985;-71
2023/12/12 00:56:29;;;;;;;17.07;4.10;;;7.70;99.90;;;;;;500721;237;27904;-71
2023/12/12 00:58:30;;;;;;;16.07;4.00;;;7.80;99.90;;;;;;501296;237;28019;-71
2023/12/12 01:00:32;;;;;;;13.03;4.30;;;7.80;99.90;;;;;;501245;237;27554;-71
2023/12/12 01:02:33;;;;;;;14.73;4.10;;;7.80;99.90;;;;;;501217;237;28189;-71
2023/12/12 01:04:34;;;;;;;15.77;5.10;;;7.80;99.90;;;;;;501290;237;28311;-74
2023/12/12 01:06:35;;;;;;;16.90;3.70;;;7.80;99.90;;;;;;501284;237;27930;-71
2023/12/12 01:08:37;;;;;;;18.50;4.63;;;7.80;99.90;;;;;;501309;237;27823;-71
2023/12/12 01:10:38;;;;;;;10.03;3.70;;;7.80;99.90;;;;;;501261;237;28356;-71
2023/12/12 01:12:39;;;;;;;11.47;3.43;;;7.80;99.90;;;;;;501026;237;29111;-71
2023/12/12 01:14:40;;;;;;;17.03;3.93;;;7.70;99.90;;;;;;501077;237;28205;-72
2023/12/12 01:16:42;;;;;;;15.20;4.60;;;7.60;99.90;;;;;;501288;237;28541;-70
2023/12/12 01:20:49;;;;;;;21.93;4.17;;;7.60;99.90;;;;;;481814;247;28021;-71
2023/12/12 01:22:50;;;;;;;17.37;4.30;;;7.70;99.90;;;;;;481728;244;28037;-71
2023/12/12 01:24:51;;;;;;;13.40;4.90;;;7.70;99.90;;;;;;481549;244;28014;-70
2023/12/12 01:26:52;;;;;;;16.00;4.37;;;7.70;99.90;;;;;;481753;244;27896;-74
2023/12/12 01:28:54;;;;;;;21.17;5.00;;;7.80;99.90;;;;;;483693;240;28119;-71
2023/12/12 01:30:59;;;;;;;12.20;4.27;;;7.80;99.90;;;;;;490597;241;27820;-71
2023/12/12 01:32:56;;;;;;;17.00;4.73;;;7.80;99.90;;;;;;490430;242;28243;-71
2023/12/12 01:34:57;;;;;;;17.27;4.37;;;7.80;99.90;;;;;;490691;241;27855;-71
2023/12/12 01:36:59;;;;;;;11.30;4.57;;;7.80;99.90;;;;;;490694;241;28376;-73
2023/12/12 01:39:00;;;;;;;13.60;4.00;;;7.90;99.90;;;;;;494679;232;28023;-71
2023/12/12 01:41:01;;;;;;;10.30;3.93;;;7.90;99.90;;;;;;503165;236;27974;-71
2023/12/12 01:43:03;;;;;;;13.37;3.70;;;7.90;99.90;;;;;;503079;236;27965;-71
2023/12/12 01:45:04;;;;;;;10.93;4.70;;;7.90;99.90;;;;;;503073;236;27883;-71
2023/12/12 01:47:05;;;;;;;11.50;3.77;;;7.90;99.90;;;;;;503155;236;27924;-72
2023/12/12 01:49:06;;;;;;;17.70;4.10;;;7.90;99.90;;;;;;503108;236;27788;-71
2023/12/12 01:51:08;;;;;;;19.20;4.90;;;7.90;99.90;;;;;;503104;236;27722;-71
2023/12/12 01:53:09;;;;;;;22.27;4.83;;;7.90;99.90;;;;;;503183;236;27807;-74
2023/12/12 01:55:10;;;;;;;17.10;4.70;;;7.90;99.90;;;;;;503064;236;27966;-71
2023/12/12 01:57:11;;;;;;;18.30;5.10;;;7.90;99.90;;;;;;503175;236;27633;-72
2023/12/12 01:59:13;;;;;;;11.03;4.17;;;8.00;99.90;;;;;;502539;236;28360;-71
2023/12/12 02:01:14;;;;;;;17.70;3.93;;;7.90;99.90;;;;;;503018;236;28190;-71
2023/12/12 02:03:15;;;;;;;16.27;4.20;;;7.90;99.90;;;;;;503200;236;28464;-73
2023/12/12 02:05:16;;;;;;;12.00;4.07;;;7.90;99.90;;;;;;503111;236;27725;-71
2023/12/12 02:07:18;;;;;;;12.20;4.30;;;7.90;99.90;;;;;;503136;236;28037;-72
2023/12/12 02:09:19;;;;;;;13.03;4.27;;;8.00;99.90;;;;;;502982;236;27955;-72
2023/12/12 02:11:21;;;;;;;16.67;4.00;;;8.00;99.90;;;;;;503188;236;28069;-71
2023/12/12 02:13:21;;;;;;;14.93;4.20;;;8.00;99.90;;;;;;503135;236;27946;-71
2023/12/12 02:15:23;;;;;;;14.90;4.97;;;8.00;99.90;;;;;;503177;236;27951;-71
2023/12/12 02:17:24;;;;;;;11.80;4.00;;;8.00;99.90;;;;;;503113;236;27984;-71
2023/12/12 02:19:25;;;;;;;21.10;4.63;;;8.00;99.90;;;;;;503086;236;27556;-71
2023/12/12 02:21:26;;;;;;;17.50;5.30;;;8.00;99.90;;;;;;503223;236;27919;-71
2023/12/12 02:23:28;;;;;;;11.77;5.07;;;8.00;99.90;;;;;;503171;236;28053;-74
2023/12/12 02:25:29;;;;;;;12.37;4.57;;;8.10;99.90;;;;;;503099;236;28471;-71
2023/12/12 02:27:30;;;;;;;12.07;3.90;;;8.10;99.90;;;;;;503184;236;27973;-72
2023/12/12 02:29:31;;;;;;;18.30;6.00;;;8.00;99.90;;;;;;500920;236;28613;-73
2023/12/12 02:31:33;;;;;;;15.63;4.57;;;8.10;99.90;;;;;;492479;241;28040;-71
2023/12/12 02:33:34;;;;;;;21.07;5.10;;;8.10;99.90;;;;;;492452;241;28088;-72
2023/12/12 02:35:35;;;;;;;16.17;5.10;;;8.10;99.90;;;;;;492386;240;28007;-71
2023/12/12 02:37:36;;;;;;;23.23;5.67;;;8.10;99.90;;;;;;492472;241;27939;-71
2023/12/12 02:39:38;;;;;;;10.17;5.37;;;8.10;99.90;;;;;;492417;241;28059;-74
2023/12/12 02:41:39;;;;;;;18.87;5.63;;;8.10;99.90;;;;;;492380;241;27979;-71
2023/12/12 02:43:40;;;;;;;11.10;4.90;;;8.10;99.90;;;;;;492463;241;27949;-72
2023/12/12 02:45:41;;;;;;;10.93;4.50;;;8.00;99.90;;;;;;492494;240;27559;-71
2023/12/12 02:47:43;;;;;;;22.10;6.07;;;8.10;99.90;;;;;;492286;241;28065;-71
2023/12/12 02:49:44;;;;;;;24.77;6.67;;;8.10;99.90;;;;;;482843;236;28546;-72
2023/12/12 02:51:45;;;;;;;11.83;5.10;;;8.10;99.90;;;;;;477827;249;28524;-72
2023/12/12 02:53:46;;;;;;;13.27;5.23;;;8.10;99.90;;;;;;477837;249;28230;-71
2023/12/12 02:55:48;;;;;;;12.53;5.70;;;8.10;99.90;;;;;;477622;249;28736;-71
2023/12/12 02:57:49;;;;;;;13.23;4.87;;;8.10;99.90;;;;;;477668;249;27689;-71
2023/12/12 02:59:50;;;;;;;15.10;4.63;;;8.10;99.90;;;;;;477812;249;28037;-72
2023/12/12 03:01:51;;;;;;;12.07;4.60;;;8.10;99.90;;;;;;477785;249;27931;-71
2023/12/12 03:03:53;;;;;;;16.13;4.73;;;8.00;99.90;;;;;;477241;248;27620;-71
2023/12/12 03:05:54;;;;;;;11.47;4.77;;;8.00;99.90;;;;;;477816;249;28484;-71
2023/12/12 03:07:55;;;;;;;9.17;4.83;;;8.00;99.90;;;;;;477738;249;27784;-71
2023/12/12 03:09:56;;;;;;;12.90;4.80;;;8.10;99.90;;;;;;473161;240;27917;-71
2023/12/12 03:11:58;;;;;;;22.00;5.70;;;8.10;99.90;;;;;;469372;253;27897;-71
2023/12/12 03:13:59;;;;;;;16.20;5.80;;;8.10;99.90;;;;;;469275;253;27645;-71
2023/12/12 03:16:00;;;;;;;15.67;4.90;;;8.10;99.90;;;;;;469482;253;28014;-74
2023/12/12 03:18:01;;;;;;;19.67;6.37;;;8.10;99.90;;;;;;469362;253;28392;-71
2023/12/12 03:20:03;;;;;;;19.07;6.33;;;8.00;99.90;;;;;;469421;253;28043;-72
2023/12/12 03:22:04;;;;;;;9.20;5.13;;;8.10;99.90;;;;;;469327;253;27991;-71
2023/12/12 03:24:05;;;;;;;20.07;6.70;;;8.10;99.90;;;;;;469425;253;27783;-71
2023/12/12 03:26:08;;;;;;;21.60;5.10;;;8.00;99.90;;;;;;469279;253;27848;-73
2023/12/12 03:28:08;;;;;;;14.70;4.93;;;8.10;99.90;;;;;;469276;253;27675;-71
2023/12/12 03:30:09;;;;;;;12.50;5.00;;;8.00;99.90;;;;;;469211;253;27938;-71
2023/12/12 03:32:10;;;;;;;13.90;4.63;;;8.10;99.90;;;;;;469348;253;28408;-74
2023/12/12 03:34:11;;;;;;;12.93;4.83;;;8.00;99.90;;;;;;469291;251;28000;-71
2023/12/12 03:36:13;;;;;;;18.67;5.30;;;8.10;99.90;;;;;;469277;253;28895;-71
2023/12/12 03:38:14;;;;;;;15.13;4.67;;;8.10;99.90;;;;;;472429;247;28092;-72
2023/12/12 03:40:15;;;;;;;18.90;5.17;;;8.10;99.90;;;;;;475505;250;28293;-72
2023/12/12 03:42:16;;;;;;;10.07;4.80;;;8.10;99.90;;;;;;475567;249;28478;-73
2023/12/12 03:44:18;;;;;;;16.53;4.70;;;8.10;99.90;;;;;;475483;250;28164;-72
2023/12/12 03:46:19;;;;;;;17.60;5.70;;;8.10;99.90;;;;;;475488;250;27666;-71
2023/12/12 03:48:20;;;;;;;18.50;5.77;;;8.10;99.90;;;;;;475464;250;27617;-71
2023/12/12 03:50:21;;;;;;;12.63;4.57;;;8.10;99.90;;;;;;475629;250;28178;-71
2023/12/12 03:52:23;;;;;;;14.50;5.00;;;8.10;99.90;;;;;;475618;250;27641;-73
2023/12/12 03:54:24;;;;;;;12.30;4.83;;;8.10;99.90;;;;;;475358;250;27532;-71
2023/12/12 03:56:25;;;;;;;15.00;5.30;;;8.00;99.90;;;;;;475534;250;27745;-71
2023/12/12 03:58:27;;;;;;;13.93;5.23;;;8.10;99.90;;;;;;475589;250;27637;-75
2023/12/12 04:00:28;;;;;;;17.90;5.60;;;8.00;99.90;;;;;;475548;250;28087;-74
2023/12/12 04:02:29;;;;;;;10.03;4.70;;;8.00;99.90;;;;;;475578;250;28489;-71
2023/12/12 04:04:30;;;;;;;19.67;5.57;;;8.00;99.90;;;;;;475591;250;28509;-71
2023/12/12 04:06:32;;;;;;;6.30;4.13;;;8.00;99.90;;;;;;475540;250;28471;-71
2023/12/12 04:08:33;;;;;;;13.00;5.03;;;8.00;99.90;;;;;;475997;236;27971;-74
2023/12/12 04:10:34;;;;;;;17.07;5.33;;;8.00;99.90;;;;;;470519;253;27933;-71
2023/12/12 04:12:35;;;;;;;9.23;5.20;;;8.00;99.90;;;;;;470609;253;28010;-71
2023/12/12 04:14:37;;;;;;;14.13;5.07;;;8.00;99.90;;;;;;470563;253;27884;-70
2023/12/12 04:16:38;;;;;;;12.40;4.67;;;7.90;99.90;;;;;;470593;253;27632;-71
2023/12/12 04:18:39;;;;;;;13.07;5.07;;;8.00;99.90;;;;;;470574;253;27944;-73
2023/12/12 04:20:40;;;;;;;14.53;4.73;;;8.00;99.90;;;;;;470485;253;27987;-72
2023/12/12 04:22:42;;;;;;;16.23;5.80;;;8.00;99.90;;;;;;470614;253;27962;-71
2023/12/12 04:24:43;;;;;;;16.60;4.77;;;8.00;99.90;;;;;;470454;253;27896;-72
2023/12/12 04:26:44;;;;;;;13.77;5.00;;;8.00;99.90;;;;;;470547;253;27542;-71
2023/12/12 04:28:45;;;;;;;16.30;6.90;;;8.00;99.90;;;;;;470555;253;28032;-72
2023/12/12 04:30:47;;;;;;;12.30;5.40;;;8.00;99.90;;;;;;470509;253;27994;-71
2023/12/12 04:32:48;;;;;;;16.73;4.90;;;8.00;99.90;;;;;;470617;253;28225;-71
2023/12/12 04:34:49;;;;;;;9.07;5.30;;;8.00;99.90;;;;;;470612;253;27929;-71
2023/12/12 04:36:50;;;;;;;14.10;5.10;;;8.00;99.90;;;;;;470539;253;27760;-71
2023/12/12 04:38:52;;;;;;;14.57;5.37;;;8.00;99.90;;;;;;470515;253;27836;-73
2023/12/12 04:40:53;;;;;;;16.87;4.70;;;7.90;99.90;;;;;;470552;253;27869;-71
2023/12/12 04:42:54;;;;;;;11.10;5.53;;;8.00;99.90;;;;;;470548;247;27975;-72
2023/12/12 04:44:55;;;;;;;11.20;4.30;;;8.00;99.90;;;;;;470490;253;27919;-72
2023/12/12 04:46:57;;;;;;;15.77;5.43;;;7.90;99.90;;;;;;470549;253;27658;-71
2023/12/12 04:49:00;;;;;;;8.10;4.53;;;7.90;99.90;;;;;;473297;240;28021;-72
2023/12/12 04:51:00;;;;;;;9.13;4.00;;;7.90;99.90;;;;;;478211;248;27775;-71
2023/12/12 04:53:00;;;;;;;11.47;5.47;;;7.90;99.90;;;;;;478241;248;27993;-71
2023/12/12 04:55:02;;;;;;;12.00;4.20;;;7.90;99.90;;;;;;478345;248;28337;-73
2023/12/12 04:57:03;;;;;;;11.43;4.80;;;7.90;99.90;;;;;;478265;248;28456;-72
2023/12/12 04:59:04;;;;;;;13.20;4.93;;;7.90;99.90;;;;;;478763;232;28618;-71
2023/12/12 05:01:06;;;;;;;9.70;4.20;;;8.00;99.90;;;;;;476795;249;29219;-71
2023/12/12 05:03:07;;;;;;;14.50;4.97;;;7.90;99.90;;;;;;476760;249;28608;-71
2023/12/12 05:05:08;;;;;;;19.07;5.20;;;7.90;99.90;;;;;;476704;249;27895;-72
2023/12/12 05:07:10;;;;;;;14.37;5.83;;;8.00;99.90;;;;;;476775;249;27851;-71
2023/12/12 05:11:22;;;;;;;8.67;4.00;;;7.90;99.90;;;;;;472613;251;27980;-72
2023/12/12 05:13:23;;;;;;;9.00;3.80;;;7.90;99.90;;;;;;472354;251;27976;-71
2023/12/12 05:15:24;;;;;;;11.83;3.90;;;7.90;99.90;;;;;;472323;251;27837;-72
2023/12/12 05:17:26;;;;;;;15.30;4.50;;;7.90;99.90;;;;;;472269;251;29383;-71
2023/12/12 05:19:27;;;;;;;9.67;4.00;;;8.00;99.90;;;;;;472210;251;28449;-72
2023/12/12 05:21:28;;;;;;;16.33;4.47;;;7.90;99.90;;;;;;471726;251;28551;-72
2023/12/12 05:23:29;;;;;;;11.10;3.93;;;7.90;99.90;;;;;;472299;251;28313;-71
2023/12/12 05:25:31;;;;;;;20.40;4.70;;;7.90;99.90;;;;;;472332;251;27954;-71
2023/12/12 05:27:32;;;;;;;12.80;4.70;;;7.90;99.90;;;;;;472343;251;27665;-72
2023/12/12 05:29:33;;;;;;;8.27;4.00;;;7.90;99.90;;;;;;472341;251;28033;-71
2023/12/12 05:31:34;;;;;;;11.13;4.07;;;7.90;99.90;;;;;;472301;251;28228;-72
2023/12/12 05:33:36;;;;;;;12.70;4.60;;;7.90;99.90;;;;;;472272;251;27419;-71
2023/12/12 05:35:37;;;;;;;12.30;3.90;;;7.90;99.90;;;;;;472376;251;27590;-71
2023/12/12 05:37:38;;;;;;;11.07;3.77;;;7.90;99.90;;;;;;472402;251;27924;-74
2023/12/12 05:39:39;;;;;;;18.30;4.60;;;8.00;99.90;;;;;;472410;251;27672;-71
2023/12/12 05:41:41;;;;;;;12.20;4.47;;;8.00;99.90;;;;;;472378;251;27846;-73
2023/12/12 05:43:42;;;;;;;16.03;4.87;;;8.00;99.90;;;;;;472362;251;28453;-71
2023/12/12 05:45:43;;;;;;;20.43;4.20;;;7.90;99.90;;;;;;472386;251;28463;-71
2023/12/12 05:47:44;;;;;;;12.03;4.20;;;7.90;99.90;;;;;;472383;251;28254;-72
2023/12/12 05:49:46;;;;;;;17.90;4.53;;;8.00;99.90;;;;;;479014;236;28532;-71
2023/12/12 05:51:47;;;;;;;13.30;3.90;;;7.90;99.90;;;;;;479559;248;27994;-74
2023/12/12 05:53:48;;;;;;;8.00;3.70;;;8.00;99.90;;;;;;479530;248;27947;-71
2023/12/12 05:55:49;;;;;;;8.20;3.80;;;7.90;99.90;;;;;;479553;248;27928;-71
2023/12/12 05:57:51;;;;;;;11.63;4.17;;;8.00;99.90;;;;;;479577;248;27886;-72
2023/12/12 05:59:52;;;;;;;12.30;4.00;;;8.00;99.90;;;;;;479545;248;27575;-71
2023/12/12 06:01:53;;;;;;;13.17;3.90;;;7.90;99.90;;;;;;479555;248;28103;-72
2023/12/12 06:03:54;;;;;;;12.67;3.57;;;7.90;99.90;;;;;;479583;248;28015;-73
2023/12/12 06:05:56;;;;;;;11.43;3.53;;;7.90;99.90;;;;;;479485;248;28027;-72
2023/12/12 06:07:57;;;;;;;12.27;4.23;;;7.90;99.90;;;;;;479513;248;28505;-71
2023/12/12 06:09:58;;;;;;;19.17;4.50;;;8.00;99.90;;;;;;479528;248;28240;-71
2023/12/12 06:12:02;;;;;;;16.23;4.70;;;7.90;99.90;;;;;;479554;248;28420;-71
2023/12/12 06:14:03;;;;;;;10.33;4.20;;;7.90;99.90;;;;;;479232;248;27823;-72
2023/12/12 06:16:02;;;;;;;7.47;3.23;;;8.00;99.90;;;;;;479409;248;27967;-71
2023/12/12 06:18:03;;;;;;;11.67;4.20;;;8.00;99.90;;;;;;479532;248;28007;-71
2023/12/12 06:20:04;;;;;;;9.97;3.90;;;8.00;99.90;;;;;;479558;248;27994;-71
2023/12/12 06:22:07;;;;;;;9.10;4.60;;;8.00;99.90;;;;;;479635;248;27957;-71
2023/12/12 06:24:07;;;;;;;7.57;3.70;;;7.90;99.90;;;;;;479541;248;28132;-74
2023/12/12 06:26:08;;;;;;;12.10;3.60;;;8.00;99.90;;;;;;479061;248;27748;-71
2023/12/12 06:28:09;;;;;;;14.37;4.07;;;8.00;99.90;;;;;;479570;248;28161;-71
2023/12/12 06:30:11;;;;;;;8.47;3.40;;;8.00;99.90;;;;;;479569;248;27532;-75
2023/12/12 06:32:12;;;;;;;11.30;4.17;;;8.00;99.90;;;;;;479588;248;27844;-71
2023/12/12 06:34:13;;;;;;;10.00;3.43;;;8.10;99.90;;;;;;479582;248;28216;-71
2023/12/12 06:36:14;;;;;;;5.90;3.43;;;8.00;99.90;;;;;;479557;248;28589;-71
2023/12/12 06:38:16;;;;;;;8.80;3.50;;;8.00;99.90;;;;;;479561;248;28561;-73
2023/12/12 06:40:17;;;;;;;8.63;3.43;;;8.10;99.90;;;;;;488011;240;28528;-73
2023/12/12 06:42:18;;;;;;;10.93;4.23;;;8.10;99.90;;;;;;495076;240;28479;-71
2023/12/12 06:44:19;;;;;;;10.53;3.60;;;8.10;99.90;;;;;;495078;240;28210;-71
2023/12/12 06:46:21;;;;;;;7.70;3.73;;;8.10;99.90;;;;;;495125;240;27955;-71
2023/12/12 06:48:22;;;;;;;12.53;3.97;;;8.10;99.90;;;;;;494525;240;27630;-71
2023/12/12 06:50:23;;;;;;;12.40;4.17;;;8.10;99.90;;;;;;494339;240;27972;-71
2023/12/12 06:52:24;;;;;;;8.73;3.70;;;8.00;99.90;;;;;;494398;240;27935;-71
2023/12/12 06:54:26;;;;;;;7.50;3.07;;;8.00;99.90;;;;;;488424;240;27503;-71
2023/12/12 06:56:27;;;;;;;5.80;3.00;;;8.10;99.90;;;;;;486428;244;28000;-71
2023/12/12 06:58:28;;;;;;;7.50;3.03;;;8.10;99.90;;;;;;487717;241;27462;-71
2023/12/12 07:00:29;;;;;;;7.70;3.10;;;8.00;99.90;;;;;;492774;241;27988;-71
2023/12/12 07:02:31;;;;;;;10.07;2.70;;;8.10;99.90;;;;;;492736;241;27835;-71
2023/12/12 07:04:32;;;;;;;7.07;3.00;;;8.10;99.90;;;;;;492735;241;27858;-72
2023/12/12 07:06:33;;;;;;;10.10;3.20;;;8.10;99.90;;;;;;492765;241;27902;-74
2023/12/12 07:08:34;;;;;;;8.70;2.83;;;8.10;99.90;;;;;;492475;241;28247;-70
2023/12/12 07:10:36;;;;;;;8.83;3.27;;;8.20;99.90;;;;;;491805;241;29093;-71
2023/12/12 07:12:37;;;;;;;8.23;3.60;;;8.10;99.90;;;;;;491809;241;28225;-71
2023/12/12 07:14:38;;;;;;;6.33;2.87;;;8.10;99.90;;;;;;487771;242;28414;-71
2023/12/12 07:16:39;;;;;;;5.70;2.50;;;8.10;99.90;;;;;;486429;244;28451;-72
2023/12/12 07:18:41;;;;;;;8.40;2.37;;;8.00;99.90;;;;;;486431;244;28359;-70
2023/12/12 07:20:42;;;;;;;9.53;2.63;;;8.10;99.90;;;;;;486456;244;28007;-72
2023/12/12 07:22:43;;;;;;;7.00;2.90;;;8.10;99.90;;;;;;486452;244;27594;-71
2023/12/12 07:24:44;;;;;;;9.80;3.00;;;8.10;99.90;;;;;;486067;242;27966;-78
2023/12/12 07:26:46;;;;;;;5.40;2.60;;;8.10;99.90;;;;;;486381;244;27766;-72
2023/12/12 07:28:47;;;;;;;4.50;2.20;;;8.10;99.90;;;;;;486454;242;27950;-71
2023/12/12 07:30:48;;;;;;;6.97;2.37;;;8.10;99.90;;;;;;486408;244;28153;-71
2023/12/12 07:32:49;;;;;;;4.30;2.40;;;8.10;99.90;;;;;;486328;244;27966;-71
2023/12/12 07:34:51;;;;;;;3.63;1.80;;;8.10;99.90;;;;;;486730;242;28000;-72
2023/12/12 07:36:52;;;;;;;3.90;1.87;;;8.20;99.90;;;;;;486707;244;27998;-72
2023/12/12 07:38:55;;;;;;;4.93;2.23;;;8.20;99.90;;;;;;486782;236;27529;-73
2023/12/12 07:40:54;;;;;;;2.47;2.27;;;8.20;99.90;;;;;;486101;244;28000;-74
2023/12/12 07:42:56;;;;;;;3.33;1.73;;;8.20;99.90;;;;;;486434;244;28064;-74
2023/12/12 07:44:57;;;;;;;21.37;8.70;;;8.20;99.90;;;;;;490723;242;27824;-71
2023/12/12 07:47:01;;;;;;;9.10;3.90;;;8.30;99.90;;;;;;491854;241;28473;-72
2023/12/12 07:48:59;;;;;;;4.57;2.80;;;8.30;99.90;;;;;;490101;241;28238;-71
2023/12/12 07:51:01;;;;;;;5.90;3.00;;;8.30;99.90;;;;;;486382;244;29058;-71
2023/12/12 07:53:04;;;;;;;3.53;2.67;;;8.40;99.90;;;;;;486447;244;28613;-73
2023/12/12 07:55:03;;;;;;;6.40;2.47;;;8.40;99.90;;;;;;486556;244;27693;-71
2023/12/12 07:57:05;;;;;;;2.93;1.83;;;8.40;99.90;;;;;;486414;244;27896;-72
2023/12/12 07:59:06;;;;;;;2.70;2.47;;;8.40;99.90;;;;;;486405;244;28020;-74
2023/12/12 08:01:07;;;;;;;4.30;3.30;;;8.40;99.90;;;;;;486481;244;28046;-72
2023/12/12 08:03:08;;;;;;;3.50;1.90;;;8.50;99.90;;;;;;486734;244;28132;-74
2023/12/12 08:05:09;;;;;;;2.50;1.70;;;8.40;99.90;;;;;;486764;244;28182;-71
2023/12/12 08:07:11;;;;;;;2.03;1.93;;;8.50;99.90;;;;;;486773;244;27886;-72
2023/12/12 08:09:12;;;;;;;2.70;2.00;;;8.50;99.90;;;;;;486712;244;28194;-71
2023/12/12 08:11:13;;;;;;;3.07;2.13;;;8.60;99.90;;;;;;489592;240;28289;-71
2023/12/12 08:13:14;;;;;;;2.30;1.80;;;8.60;99.90;;;;;;495074;240;27972;-72
2023/12/12 08:15:16;;;;;;;1.70;1.60;;;8.50;99.90;;;;;;495085;240;27936;-71
2023/12/12 08:17:17;;;;;;;2.93;2.50;;;8.60;99.90;;;;;;495064;240;28198;-71
2023/12/12 08:19:18;;;;;;;2.47;2.10;;;8.60;99.90;;;;;;494176;236;28051;-73
2023/12/12 08:21:20;;;;;;;3.67;3.37;;;8.60;99.90;;;;;;496617;236;27975;-72
2023/12/12 08:23:21;;;;;;;5.83;2.90;;;8.70;99.90;;;;;;489388;243;28086;-72
2023/12/12 08:25:22;;;;;;;3.30;3.10;;;8.60;99.90;;;;;;488119;242;28008;-71
2023/12/12 08:27:23;;;;;;;6.03;5.43;;;8.60;99.90;;;;;;488034;243;27878;-72
2023/12/12 08:29:25;;;;;;;3.10;2.80;;;8.70;99.90;;;;;;475561;242;28052;-73
2023/12/12 08:31:26;;;;;;;2.40;2.20;;;8.70;99.90;;;;;;477082;249;27774;-71
2023/12/12 08:33:27;;;;;;;3.83;3.53;;;8.70;99.90;;;;;;477050;249;27798;-72
2023/12/12 08:35:28;;;;;;;7.63;6.93;;;8.80;99.90;;;;;;477996;246;28041;-73
2023/12/12 08:37:29;;;;;;;3.23;2.90;;;8.80;99.90;;;;;;479294;245;28049;-72
2023/12/12 08:39:31;;;;;;;3.70;2.97;;;8.80;99.90;;;;;;481696;235;27888;-72
2023/12/12 08:41:32;;;;;;;3.10;2.20;;;8.80;99.90;;;;;;484360;244;27913;-71
2023/12/12 08:43:33;;;;;;;2.63;2.20;;;8.80;99.90;;;;;;471510;249;28490;-76
2023/12/12 08:45:34;;;;;;;2.07;1.90;;;8.80;99.90;;;;;;474545;249;29192;-73
2023/12/12 08:47:36;;;;;;;3.30;3.00;;;8.80;99.90;;;;;;473583;251;28533;-71
2023/12/12 08:49:37;;;;;;;4.00;3.40;;;8.90;99.90;;;;;;472836;240;28524;-74
2023/12/12 08:51:39;;;;;;;2.70;2.50;;;8.90;99.90;;;;;;467510;253;28045;-72
2023/12/12 08:53:39;;;;;;;2.30;2.10;;;8.90;99.90;;;;;;478486;247;27902;-72
2023/12/12 08:55:41;;;;;;;3.23;3.00;;;9.00;99.90;;;;;;472233;251;27883;-72
2023/12/12 08:57:43;;;;;;;2.57;2.37;;;9.00;99.90;;;;;;472602;251;27877;-76
2023/12/12 08:59:43;;;;;;;2.63;2.43;;;9.00;99.90;;;;;;474621;240;27994;-73
2023/12/12 09:01:44;;;;;;;2.10;2.00;;;9.00;99.90;;;;;;468610;249;28010;-71
2023/12/12 09:03:46;;;;;;;5.20;2.40;;;9.00;99.90;;;;;;474229;249;28555;-72
2023/12/12 09:05:47;;;;;;;2.17;1.97;;;9.00;99.90;;;;;;473211;249;28052;-75
2023/12/12 09:07:48;;;;;;;12.70;6.83;;;9.10;99.90;;;;;;472747;249;27954;-72
2023/12/12 09:09:49;;;;;;;8.87;6.23;;;9.10;99.90;;;;;;464918;249;27862;-72
2023/12/12 09:11:51;;;;;;;5.90;3.67;;;9.10;99.90;;;;;;463682;255;28037;-73
2023/12/12 09:13:52;;;;;;;4.87;3.27;;;9.10;99.90;;;;;;464929;253;28053;-72
2023/12/12 09:15:54;;;;;;;3.07;2.73;;;9.10;99.90;;;;;;463623;255;29154;-71
2023/12/12 09:17:54;;;;;;;5.10;2.67;;;9.10;99.90;;;;;;463564;256;28439;-72
2023/12/12 09:19:56;;;;;;;4.27;3.00;;;9.20;99.90;;;;;;463709;249;27995;-72
2023/12/12 09:21:57;;;;;;;5.97;3.73;;;9.10;99.90;;;;;;463582;256;28028;-72
2023/12/12 09:23:58;;;;;;;4.60;3.17;;;9.20;99.90;;;;;;463735;249;28170;-72
2023/12/12 09:25:59;;;;;;;5.80;3.37;;;9.20;99.90;;;;;;463613;255;28226;-73
2023/12/12 09:28:01;;;;;;;2.83;2.43;;;9.20;99.90;;;;;;463613;255;27935;-72
2023/12/12 09:30:02;;;;;;;5.80;3.47;;;9.20;99.90;;;;;;463729;249;28076;-72
2023/12/12 09:32:03;;;;;;;9.10;4.80;;;9.30;99.90;;;;;;463600;255;28053;-72
2023/12/12 09:34:04;;;;;;;5.50;4.07;;;9.30;99.90;;;;;;463692;249;27923;-73
2023/12/12 09:36:06;;;;;;;5.00;3.43;;;9.30;99.90;;;;;;463657;255;28185;-74
2023/12/12 09:38:07;;;;;;;9.37;5.93;;;9.30;99.90;;;;;;463525;253;28228;-72
2023/12/12 09:40:09;;;;;;;6.47;4.87;;;9.30;99.90;;;;;;463570;249;27647;-73
2023/12/12 09:42:09;;;;;;;7.70;4.43;;;9.30;99.90;;;;;;463534;255;28010;-73
2023/12/12 09:44:11;;;;;;;7.53;4.27;;;9.30;99.90;;;;;;469240;249;28036;-73
2023/12/12 09:46:12;;;;;;;3.03;2.67;;;9.40;99.90;;;;;;477802;249;27709;-73
2023/12/12 09:48:13;;;;;;;5.43;2.77;;;9.40;99.90;;;;;;477736;249;27856;-73
2023/12/12 09:50:14;;;;;;;6.17;4.20;;;9.40;99.90;;;;;;470302;249;28368;-73
2023/12/12 09:52:16;;;;;;;5.33;3.50;;;9.50;99.90;;;;;;469634;253;28368;-73
2023/12/12 09:54:17;;;;;;;6.17;5.33;;;9.50;99.90;;;;;;472941;249;28382;-73
2023/12/12 09:56:18;;;;;;;5.13;3.80;;;9.60;99.90;;;;;;477793;249;28426;-74
2023/12/12 09:58:19;;;;;;;5.90;4.20;;;9.60;99.90;;;;;;477768;249;27901;-73
2023/12/12 10:00:22;;;;;;;5.50;4.07;;;9.60;99.90;;;;;;477664;249;27901;-73
2023/12/12 10:02:22;;;;;;;8.17;6.13;;;9.60;99.90;;;;;;477576;249;27962;-75
2023/12/12 10:04:23;;;;;;;8.50;6.40;;;9.60;99.90;;;;;;471514;249;27756;-73
2023/12/12 10:06:25;;;;;;;18.43;13.97;;;9.60;99.90;;;;;;463616;251;28055;-73
2023/12/12 10:10:32;;;;;;;6.60;5.90;;;9.50;99.90;;;;;;471090;247;27768;-71
2023/12/12 10:12:33;;;;;;;6.90;4.87;;;9.50;99.90;;;;;;476479;247;28027;-72
2023/12/12 10:14:34;;;;;;;9.33;8.33;;;9.50;99.90;;;;;;462855;255;27667;-71
2023/12/12 10:16:36;;;;;;;14.27;11.70;;;9.60;99.90;;;;;;484537;244;27606;-72
2023/12/12 10:18:37;;;;;;;12.07;8.97;;;9.50;99.90;;;;;;476293;235;28013;-72
2023/12/12 10:20:38;;;;;;;9.47;4.90;;;9.60;99.90;;;;;;482474;246;29099;-71
2023/12/12 10:22:39;;;;;;;4.33;3.47;;;9.50;99.90;;;;;;482394;245;28509;-71
2023/12/12 10:24:41;;;;;;;3.90;3.50;;;9.60;99.90;;;;;;480825;247;28319;-72
2023/12/12 10:26:42;;;;;;;5.03;3.20;;;9.60;99.90;;;;;;475170;250;28364;-71
2023/12/12 10:28:43;;;;;;;3.70;2.90;;;9.60;99.90;;;;;;475168;248;28039;-72
2023/12/12 10:30:44;;;;;;;6.43;4.87;;;9.60;99.90;;;;;;479500;248;27909;-71
2023/12/12 10:32:46;;;;;;;5.17;4.37;;;9.60;99.90;;;;;;486339;244;27704;-71
2023/12/12 10:34:47;;;;;;;7.17;6.03;;;9.60;99.90;;;;;;484931;243;28144;-73
2023/12/12 10:36:48;;;;;;;5.30;3.50;;;9.60;99.90;;;;;;485574;244;27950;-72
2023/12/12 10:38:52;;;;;;;2.80;2.50;;;9.60;99.90;;;;;;485417;245;28038;-72
2023/12/12 10:40:53;;;;;;;5.30;4.27;;;9.50;99.90;;;;;;484689;245;28135;-71